createdAt,value
2017-09-09T00:00:56.521Z,6.72
2017-09-09T00:02:03.612Z,6.43
2017-09-09T00:03:10.617Z,6.68
2017-09-09T00:04:17.976Z,6.35
2017-09-09T00:05:24.423Z,6.53
2017-09-09T00:06:30.667Z,6.55
2017-09-09T00:07:36.927Z,6.70
2017-09-09T00:08:43.176Z,7.10
2017-09-09T00:09:50.517Z,6.93
2017-09-09T00:10:56.658Z,7.85
2017-09-09T00:12:03.698Z,7.25
2017-09-09T00:13:09.945Z,6.95
2017-09-09T00:14:16.120Z,6.55
2017-09-09T00:15:22.624Z,7.87
2017-09-09T00:16:28.675Z,6.22
2017-09-09T00:17:35.396Z,7.35
2017-09-09T00:18:41.532Z,6.90
2017-09-09T00:19:47.754Z,7.03
2017-09-09T00:20:54.555Z,6.70
2017-09-09T00:22:02.140Z,7.35
2017-09-09T00:23:08.698Z,6.43
2017-09-09T00:24:16.206Z,6.65
2017-09-09T00:25:22.753Z,7.15
2017-09-09T00:26:28.936Z,7.28
2017-09-09T00:27:35.130Z,7.85
2017-09-09T00:28:42.579Z,6.35
2017-09-09T00:29:49.528Z,7.60
2017-09-09T00:30:55.739Z,6.15
2017-09-09T00:32:03.367Z,7.40
2017-09-09T00:33:09.533Z,7.05
2017-09-09T00:34:15.572Z,7.20
2017-09-09T00:35:21.730Z,6.55
2017-09-09T00:36:28.439Z,7.00
2017-09-09T00:37:34.741Z,7.65
2017-09-09T00:38:41.103Z,7.00
2017-09-09T00:39:47.597Z,7.40
2017-09-09T00:40:53.962Z,7.00
2017-09-09T00:41:59.989Z,6.97
2017-09-09T00:43:06.149Z,6.60
2017-09-09T00:44:12.356Z,6.60
2017-09-09T00:45:18.653Z,6.87
2017-09-09T00:46:24.918Z,6.20
2017-09-09T00:47:31.078Z,6.55
2017-09-09T00:48:36.919Z,6.90
2017-09-09T00:49:43.063Z,6.60
2017-09-09T00:50:48.646Z,7.47
2017-09-09T00:51:54.017Z,6.65
2017-09-09T00:52:59.550Z,7.05
2017-09-09T00:54:05.433Z,6.97
2017-09-09T00:55:10.926Z,6.62
2017-09-09T00:56:18.853Z,6.62
2017-09-09T00:57:25.380Z,7.10
2017-09-09T00:58:30.672Z,6.95
2017-09-09T00:59:37.343Z,7.05
2017-09-09T01:00:43.130Z,6.93
2017-09-09T01:01:49.322Z,6.32
2017-09-09T01:02:55.702Z,6.93
2017-09-09T01:04:01.922Z,6.78
2017-09-09T01:05:08.298Z,7.55
2017-09-09T01:06:14.916Z,7.05
2017-09-09T01:07:21.178Z,6.87
2017-09-09T01:08:28.119Z,6.85
2017-09-09T01:09:34.480Z,7.07
2017-09-09T01:10:40.688Z,7.03
2017-09-09T01:11:47.181Z,6.15
2017-09-09T01:12:53.189Z,7.62
2017-09-09T01:13:59.511Z,6.55
2017-09-09T01:15:05.717Z,7.72
2017-09-09T01:16:13.077Z,7.43
2017-09-09T01:17:19.750Z,6.78
2017-09-09T01:18:26.316Z,7.18
2017-09-09T01:19:32.492Z,7.43
2017-09-09T01:20:38.358Z,6.70
2017-09-09T01:21:43.888Z,7.22
2017-09-09T01:22:49.359Z,7.43
2017-09-09T01:23:55.302Z,6.12
2017-09-09T01:25:01.349Z,7.03
2017-09-09T01:26:07.735Z,5.97
2017-09-09T01:27:13.133Z,6.90
2017-09-09T01:28:19.052Z,6.22
2017-09-09T01:29:24.995Z,6.57
2017-09-09T01:30:31.278Z,6.70
2017-09-09T01:31:37.440Z,6.85
2017-09-09T01:32:43.665Z,6.90
2017-09-09T01:33:49.610Z,6.95
2017-09-09T01:34:55.983Z,6.57
2017-09-09T01:36:02.635Z,6.28
2017-09-09T01:37:08.853Z,6.65
2017-09-09T01:38:14.996Z,5.95
2017-09-09T01:39:21.332Z,7.28
2017-09-09T01:40:27.705Z,6.78
2017-09-09T01:41:34.269Z,6.60
2017-09-09T01:42:40.308Z,6.43
2017-09-09T01:43:46.751Z,6.93
2017-09-09T01:44:53.799Z,6.87
2017-09-09T01:45:59.970Z,6.35
2017-09-09T01:47:06.303Z,6.47
2017-09-09T01:48:12.509Z,6.65
2017-09-09T01:49:18.872Z,6.75
2017-09-09T01:50:25.204Z,7.05
2017-09-09T01:51:31.636Z,5.25
2017-09-09T01:52:39.039Z,7.82
2017-09-09T01:53:45.034Z,7.28
2017-09-09T01:54:51.594Z,6.95
2017-09-09T01:55:57.874Z,6.80
2017-09-09T01:57:05.198Z,6.70
2017-09-09T01:58:12.352Z,6.78
2017-09-09T01:59:22.336Z,6.85
2017-09-09T02:00:31.744Z,6.32
2017-09-09T02:01:37.970Z,6.03
2017-09-09T02:02:44.266Z,6.78
2017-09-09T02:03:50.254Z,7.97
2017-09-09T02:04:56.724Z,6.70
2017-09-09T02:06:02.926Z,6.80
2017-09-09T02:07:09.707Z,7.00
2017-09-09T02:08:15.868Z,7.22
2017-09-09T02:09:22.246Z,6.05
2017-09-09T02:10:29.317Z,6.40
2017-09-09T02:11:36.244Z,6.68
2017-09-09T02:12:42.647Z,6.80
2017-09-09T02:13:48.869Z,7.22
2017-09-09T02:14:55.260Z,6.90
2017-09-09T02:16:03.077Z,7.10
2017-09-09T02:17:09.850Z,6.15
2017-09-09T02:18:16.191Z,6.93
2017-09-09T02:19:22.764Z,6.95
2017-09-09T02:20:29.782Z,7.28
2017-09-09T02:21:35.920Z,6.95
2017-09-09T02:22:42.157Z,7.12
2017-09-09T02:23:48.436Z,6.30
2017-09-09T02:24:54.869Z,7.22
2017-09-09T02:26:01.289Z,6.53
2017-09-09T02:27:07.967Z,6.65
2017-09-09T02:28:14.353Z,5.80
2017-09-09T02:29:20.793Z,6.82
2017-09-09T02:30:27.007Z,7.12
2017-09-09T02:31:33.254Z,7.30
2017-09-09T02:32:39.562Z,5.05
2017-09-09T02:33:46.732Z,6.45
2017-09-09T02:34:53.109Z,6.72
2017-09-09T02:35:59.503Z,6.20
2017-09-09T02:37:07.309Z,6.30
2017-09-09T02:38:13.463Z,6.90
2017-09-09T02:39:20.451Z,6.60
2017-09-09T02:40:26.445Z,6.12
2017-09-09T02:41:32.903Z,6.43
2017-09-09T02:42:39.393Z,6.70
2017-09-09T02:43:45.718Z,6.78
2017-09-09T02:44:53.062Z,6.35
2017-09-09T02:45:59.510Z,6.35
2017-09-09T02:47:07.078Z,6.70
2017-09-09T02:48:14.240Z,6.40
2017-09-09T02:49:20.830Z,6.47
2017-09-09T02:50:27.338Z,7.50
2017-09-09T02:51:33.966Z,5.80
2017-09-09T02:52:40.401Z,6.10
2017-09-09T02:53:46.959Z,6.35
2017-09-09T02:54:53.982Z,7.25
2017-09-09T02:56:00.826Z,6.50
2017-09-09T02:57:07.213Z,5.97
2017-09-09T02:58:13.684Z,6.57
2017-09-09T02:59:19.834Z,7.15
2017-09-09T03:00:26.353Z,6.43
2017-09-09T03:01:34.870Z,6.45
2017-09-09T03:02:44.548Z,6.72
2017-09-09T03:03:52.012Z,6.68
2017-09-09T03:04:58.448Z,6.37
2017-09-09T03:06:04.828Z,7.47
2017-09-09T03:07:11.259Z,6.80
2017-09-09T03:08:18.710Z,7.05
2017-09-09T03:09:25.202Z,6.68
2017-09-09T03:10:31.588Z,7.82
2017-09-09T03:11:37.727Z,6.93
2017-09-09T03:12:44.444Z,6.90
2017-09-09T03:13:51.030Z,6.00
2017-09-09T03:14:57.374Z,6.95
2017-09-09T03:16:03.895Z,6.57
2017-09-09T03:17:10.239Z,6.32
2017-09-09T03:18:16.454Z,6.95
2017-09-09T03:19:22.756Z,5.90
2017-09-09T03:20:29.906Z,5.95
2017-09-09T03:21:36.220Z,6.70
2017-09-09T03:22:42.391Z,6.35
2017-09-09T03:23:48.821Z,6.15
2017-09-09T03:24:55.525Z,6.82
2017-09-09T03:26:01.773Z,5.85
2017-09-09T03:27:08.372Z,6.40
2017-09-09T03:28:15.079Z,7.95
2017-09-09T03:29:21.567Z,5.90
2017-09-09T03:30:28.210Z,6.35
2017-09-09T03:31:35.237Z,5.53
2017-09-09T03:32:41.655Z,6.72
2017-09-09T03:33:48.656Z,6.05
2017-09-09T03:34:55.044Z,5.22
2017-09-09T03:36:01.341Z,6.07
2017-09-09T03:37:07.662Z,5.90
2017-09-09T03:38:13.958Z,6.18
2017-09-09T03:39:20.129Z,6.10
2017-09-09T03:40:27.220Z,6.37
2017-09-09T03:41:33.683Z,6.60
2017-09-09T03:42:40.286Z,6.10
2017-09-09T03:43:50.071Z,5.80
2017-09-09T03:44:56.364Z,5.95
2017-09-09T03:46:02.667Z,6.28
2017-09-09T03:47:08.823Z,7.00
2017-09-09T03:48:15.858Z,5.85
2017-09-09T03:49:22.666Z,6.30
2017-09-09T03:50:28.905Z,6.53
2017-09-09T03:51:35.173Z,5.60
2017-09-09T03:52:41.619Z,6.22
2017-09-09T03:53:48.054Z,6.32
2017-09-09T03:54:54.724Z,6.55
2017-09-09T03:56:01.185Z,5.90
2017-09-09T03:57:07.716Z,6.57
2017-09-09T03:58:13.710Z,6.95
2017-09-09T03:59:20.323Z,6.00
2017-09-09T04:00:27.079Z,7.18
2017-09-09T04:01:33.611Z,6.18
2017-09-09T04:02:39.971Z,6.55
2017-09-09T04:03:46.532Z,5.80
2017-09-09T04:04:54.769Z,6.20
2017-09-09T04:06:02.492Z,6.05
2017-09-09T04:07:08.918Z,6.03
2017-09-09T04:08:15.736Z,5.35
2017-09-09T04:09:22.119Z,5.32
2017-09-09T04:10:29.061Z,6.60
2017-09-09T04:11:36.463Z,5.12
2017-09-09T04:12:44.750Z,4.90
2017-09-09T04:13:52.046Z,5.45
2017-09-09T04:14:59.749Z,6.05
2017-09-09T04:16:07.271Z,4.97
2017-09-09T04:17:16.324Z,5.20
2017-09-09T04:18:25.133Z,7.80
2017-09-09T04:19:32.588Z,5.97
2017-09-09T04:20:41.183Z,5.57
2017-09-09T04:21:49.338Z,6.20
2017-09-09T04:22:58.628Z,6.20
2017-09-09T04:24:07.027Z,5.62
2017-09-09T04:25:16.454Z,5.37
2017-09-09T04:26:23.772Z,6.30
2017-09-09T04:27:31.298Z,5.15
2017-09-09T04:28:39.371Z,6.07
2017-09-09T04:29:47.294Z,5.65
2017-09-09T04:30:55.346Z,5.78
2017-09-09T04:32:03.451Z,5.30
2017-09-09T04:33:12.351Z,5.32
2017-09-09T04:34:21.398Z,5.07
2017-09-09T04:35:30.224Z,5.78
2017-09-09T04:36:38.688Z,5.32
2017-09-09T04:37:47.323Z,6.30
2017-09-09T04:38:57.409Z,5.50
2017-09-09T04:40:07.393Z,5.85
2017-09-09T04:41:18.417Z,4.87
2017-09-09T04:42:31.555Z,5.30
2017-09-09T04:43:40.947Z,4.80
2017-09-09T04:44:49.236Z,5.82
2017-09-09T04:45:58.676Z,5.15
2017-09-09T04:47:08.434Z,4.93
2017-09-09T04:48:17.451Z,5.57
2017-09-09T04:49:27.407Z,5.55
2017-09-09T04:50:36.356Z,5.50
2017-09-09T04:51:46.345Z,4.90
2017-09-09T04:52:55.935Z,4.95
2017-09-09T04:54:03.727Z,4.70
2017-09-09T04:55:12.374Z,4.43
2017-09-09T04:56:24.430Z,5.35
2017-09-09T04:57:36.395Z,5.57
2017-09-09T04:58:47.585Z,5.25
2017-09-09T04:59:58.400Z,4.80
2017-09-09T05:01:09.570Z,5.53
2017-09-09T05:02:23.529Z,5.20
2017-09-09T05:03:32.357Z,5.22
2017-09-09T05:04:43.345Z,4.72
2017-09-09T05:05:53.329Z,4.97
2017-09-09T05:07:05.264Z,5.12
2017-09-09T05:08:16.337Z,5.30
2017-09-09T05:09:26.384Z,4.53
2017-09-09T05:10:36.350Z,4.53
2017-09-09T05:11:47.123Z,4.32
2017-09-09T05:12:59.365Z,5.00
2017-09-09T05:14:08.393Z,4.00
2017-09-09T05:15:19.358Z,5.20
2017-09-09T05:16:29.400Z,4.53
2017-09-09T05:17:41.377Z,4.25
2017-09-09T05:18:53.547Z,4.72
2017-09-09T05:20:04.388Z,4.45
2017-09-09T05:21:14.481Z,4.20
2017-09-09T05:22:27.478Z,5.12
2017-09-09T05:23:38.601Z,5.45
2017-09-09T05:24:49.332Z,5.10
2017-09-09T05:26:00.449Z,4.55
2017-09-09T05:27:13.492Z,4.50
2017-09-09T05:28:24.410Z,5.75
2017-09-09T05:29:38.372Z,4.65
2017-09-09T05:30:49.259Z,4.78
2017-09-09T05:32:00.345Z,4.37
2017-09-09T05:33:11.457Z,4.30
2017-09-09T05:34:23.328Z,4.47
2017-09-09T05:35:34.328Z,4.78
2017-09-09T05:36:44.408Z,3.80
2017-09-09T05:38:13.194Z,4.40
2017-09-09T05:39:24.458Z,4.05
2017-09-09T05:41:02.994Z,4.87
2017-09-09T05:42:11.590Z,4.07
2017-09-09T05:43:33.200Z,3.83
2017-09-09T05:46:37.055Z,4.40
2017-09-09T05:48:12.089Z,4.25
2017-09-09T05:49:27.581Z,4.30
2017-09-09T05:52:30.182Z,3.70
2017-09-09T05:54:11.486Z,4.35
2017-09-09T05:55:28.588Z,4.18
2017-09-09T05:56:47.879Z,3.95
2017-09-09T05:58:00.400Z,4.03
2017-09-09T05:59:21.248Z,4.30
2017-09-09T06:00:46.355Z,3.95
2017-09-09T06:02:00.502Z,4.28
2017-09-09T06:03:15.371Z,3.65
2017-09-09T06:04:35.405Z,4.25
2017-09-09T06:05:50.523Z,4.45
2017-09-09T06:07:20.741Z,4.65
2017-09-09T06:08:34.138Z,4.40
2017-09-09T06:10:13.237Z,4.70
2017-09-09T06:13:28.013Z,4.75
2017-09-09T06:15:06.111Z,4.35
2017-09-09T06:16:21.911Z,4.97
2017-09-09T06:17:51.396Z,5.60
2017-09-09T06:19:12.315Z,4.65
2017-09-09T06:20:45.186Z,5.10
2017-09-09T06:22:22.209Z,4.40
2017-09-09T06:24:23.351Z,4.30
2017-09-09T06:27:53.518Z,4.53
2017-09-09T06:29:31.763Z,4.30
2017-09-09T06:32:36.754Z,5.00
2017-09-09T06:34:00.421Z,5.65
2017-09-09T06:35:21.921Z,5.00
2017-09-09T06:36:33.233Z,5.40
2017-09-09T06:37:51.095Z,6.00
2017-09-09T06:39:00.319Z,4.80
2017-09-09T06:40:10.205Z,4.43
2017-09-09T06:41:22.171Z,5.43
2017-09-09T06:42:36.385Z,4.93
2017-09-09T06:43:52.289Z,5.15
2017-09-09T06:45:09.403Z,5.12
2017-09-09T06:46:22.321Z,5.10
2017-09-09T06:47:33.461Z,5.45
2017-09-09T06:48:45.104Z,5.50
2017-09-09T06:49:58.323Z,5.35
2017-09-09T06:51:11.150Z,5.15
2017-09-09T06:52:26.564Z,5.65
2017-09-09T06:53:42.458Z,5.32
2017-09-09T06:54:54.293Z,6.30
2017-09-09T06:56:08.194Z,5.78
2017-09-09T06:57:21.115Z,5.30
2017-09-09T06:58:35.319Z,5.53
2017-09-09T06:59:49.464Z,6.07
2017-09-09T07:01:03.069Z,5.80
2017-09-09T07:02:16.775Z,6.10
2017-09-09T07:03:30.138Z,5.28
2017-09-09T07:04:41.040Z,5.78
2017-09-09T07:05:53.068Z,5.40
2017-09-09T07:07:09.361Z,5.75
2017-09-09T07:08:28.438Z,5.50
2017-09-09T07:09:43.340Z,6.20
2017-09-09T07:10:54.275Z,6.05
2017-09-09T07:12:08.113Z,6.25
2017-09-09T07:13:21.166Z,5.65
2017-09-09T07:15:04.097Z,6.65
2017-09-09T07:16:16.486Z,5.50
2017-09-09T07:17:26.087Z,6.07
2017-09-09T07:18:36.084Z,5.80
2017-09-09T07:19:48.099Z,5.90
2017-09-09T07:20:58.954Z,6.07
2017-09-09T07:22:10.299Z,6.35
2017-09-09T07:23:20.175Z,5.68
2017-09-09T07:24:31.081Z,5.18
2017-09-09T07:25:41.085Z,5.62
2017-09-09T07:26:52.125Z,6.45
2017-09-09T07:30:36.115Z,5.75
2017-09-09T07:32:11.865Z,5.82
2017-09-09T07:33:20.904Z,5.70
2017-09-09T07:34:29.980Z,6.30
2017-09-09T07:35:40.938Z,5.68
2017-09-09T07:36:50.976Z,6.47
2017-09-09T07:38:01.674Z,6.30
2017-09-09T07:39:11.021Z,5.90
2017-09-09T07:40:19.975Z,5.70
2017-09-09T07:41:29.144Z,5.72
2017-09-09T07:42:38.938Z,5.68
2017-09-09T07:43:48.985Z,5.93
2017-09-09T07:44:59.011Z,5.50
2017-09-09T07:46:07.083Z,5.82
2017-09-09T07:47:16.503Z,5.15
2017-09-09T07:48:27.953Z,5.03
2017-09-09T07:49:38.114Z,5.32
2017-09-09T07:50:48.193Z,5.10
2017-09-09T07:51:59.314Z,6.07
2017-09-09T07:53:21.052Z,5.97
2017-09-09T07:54:32.026Z,5.78
2017-09-09T07:55:41.845Z,5.43
2017-09-09T07:56:50.993Z,5.75
2017-09-09T07:58:01.952Z,6.57
2017-09-09T07:59:13.372Z,5.10
2017-09-09T08:00:24.035Z,4.75
2017-09-09T08:01:33.981Z,5.05
2017-09-09T08:02:45.968Z,5.28
2017-09-09T08:07:55.187Z,5.82
2017-09-09T08:13:45.106Z,6.55
2017-09-09T08:14:55.007Z,6.53
2017-09-09T08:16:04.976Z,5.78
2017-09-09T08:17:15.191Z,5.70
2017-09-09T08:18:25.034Z,5.35
2017-09-09T08:19:35.947Z,5.32
2017-09-09T08:20:46.904Z,5.93
2017-09-09T08:21:57.021Z,5.78
2017-09-09T08:23:07.895Z,6.28
2017-09-09T08:24:17.993Z,5.30
2017-09-09T08:25:28.056Z,5.53
2017-09-09T08:26:38.935Z,5.43
2017-09-09T08:27:49.854Z,5.93
2017-09-09T08:29:01.002Z,5.55
2017-09-09T08:30:11.951Z,5.85
2017-09-09T08:31:21.943Z,5.82
2017-09-09T08:32:31.918Z,5.93
2017-09-09T08:33:41.952Z,5.30
2017-09-09T08:34:50.865Z,5.18
2017-09-09T08:36:00.398Z,5.82
2017-09-09T08:37:10.617Z,5.43
2017-09-09T08:38:21.176Z,5.10
2017-09-09T08:39:29.548Z,6.00
2017-09-09T08:40:37.874Z,6.10
2017-09-09T08:41:48.878Z,5.07
2017-09-09T08:42:58.874Z,5.50
2017-09-09T08:44:08.904Z,5.18
2017-09-09T08:45:18.926Z,5.90
2017-09-09T08:46:27.992Z,6.05
2017-09-09T08:47:37.946Z,6.07
2017-09-09T08:48:48.076Z,5.18
2017-09-09T08:49:57.707Z,6.22
2017-09-09T08:51:07.797Z,5.62
2017-09-09T08:52:19.893Z,5.40
2017-09-09T08:53:29.908Z,5.60
2017-09-09T08:54:39.993Z,5.60
2017-09-09T08:55:49.894Z,5.90
2017-09-09T08:57:00.929Z,5.53
2017-09-09T08:58:09.801Z,5.82
2017-09-09T08:59:19.970Z,5.47
2017-09-09T09:00:30.850Z,5.57
2017-09-09T09:01:40.942Z,5.12
2017-09-09T09:02:51.934Z,4.50
2017-09-09T09:04:01.886Z,5.45
2017-09-09T09:05:12.771Z,5.15
2017-09-09T09:06:23.851Z,5.12
2017-09-09T09:07:32.877Z,4.85
2017-09-09T09:08:41.826Z,4.82
2017-09-09T09:09:50.666Z,5.50
2017-09-09T09:11:00.148Z,5.80
2017-09-09T09:12:09.700Z,5.50
2017-09-09T09:13:19.754Z,5.10
2017-09-09T09:14:30.864Z,4.90
2017-09-09T09:15:40.845Z,4.95
2017-09-09T09:16:50.746Z,4.97
2017-09-09T09:18:00.708Z,5.45
2017-09-09T09:19:10.507Z,5.30
2017-09-09T09:20:19.847Z,4.93
2017-09-09T09:21:30.042Z,5.43
2017-09-09T09:22:38.775Z,5.80
2017-09-09T09:23:48.005Z,6.10
2017-09-09T09:24:57.692Z,4.72
2017-09-09T09:26:06.748Z,5.12
2017-09-09T09:27:17.727Z,5.18
2017-09-09T09:28:27.698Z,4.97
2017-09-09T09:29:36.835Z,4.95
2017-09-09T09:30:45.629Z,5.28
2017-09-09T09:31:55.816Z,5.43
2017-09-09T09:33:04.876Z,5.15
2017-09-09T09:34:13.907Z,4.25
2017-09-09T09:35:23.619Z,4.95
2017-09-09T09:36:32.817Z,5.22
2017-09-09T09:37:41.603Z,5.62
2017-09-09T09:38:50.773Z,5.10
2017-09-09T09:39:59.790Z,5.82
2017-09-09T09:41:09.811Z,4.60
2017-09-09T09:42:18.764Z,5.10
2017-09-09T09:47:36.737Z,4.65
2017-09-09T09:48:45.674Z,5.62
2017-09-09T09:49:55.776Z,5.62
2017-09-09T09:51:04.761Z,5.40
2017-09-09T09:52:14.639Z,4.60
2017-09-09T09:53:23.696Z,5.15
2017-09-09T09:54:32.729Z,5.75
2017-09-09T09:55:42.826Z,5.20
2017-09-09T09:56:52.637Z,4.90
2017-09-09T09:58:02.714Z,5.40
2017-09-09T09:59:12.687Z,5.30
2017-09-09T10:00:22.669Z,4.90
2017-09-09T10:01:31.759Z,5.12
2017-09-09T10:02:40.862Z,5.07
2017-09-09T10:03:50.661Z,5.00
2017-09-09T10:04:59.535Z,5.12
2017-09-09T10:06:08.667Z,4.72
2017-09-09T10:07:18.594Z,5.20
2017-09-09T10:08:29.599Z,5.43
2017-09-09T10:09:39.467Z,5.18
2017-09-09T10:10:49.769Z,4.85
2017-09-09T10:11:58.533Z,4.80
2017-09-09T10:13:08.825Z,5.30
2017-09-09T10:14:17.673Z,4.57
2017-09-09T10:15:26.650Z,5.32
2017-09-09T10:16:36.635Z,4.65
2017-09-09T10:17:46.747Z,4.50
2017-09-09T10:18:55.666Z,3.78
2017-09-09T10:20:03.854Z,4.75
2017-09-09T10:21:11.692Z,4.03
2017-09-09T10:22:20.617Z,3.87
2017-09-09T10:23:29.660Z,3.85
2017-09-09T10:24:41.678Z,3.92
2017-09-09T10:25:51.573Z,4.43
2017-09-09T10:27:00.598Z,4.20
2017-09-09T10:28:09.475Z,4.30
2017-09-09T10:29:18.449Z,4.35
2017-09-09T10:30:28.013Z,4.05
2017-09-09T10:31:37.699Z,4.20
2017-09-09T10:32:47.686Z,4.25
2017-09-09T10:33:58.556Z,3.42
2017-09-09T10:35:08.963Z,3.55
2017-09-09T10:36:44.974Z,4.62
2017-09-09T10:37:53.920Z,4.05
2017-09-09T10:39:02.974Z,4.00
2017-09-09T10:40:15.654Z,4.32
2017-09-09T10:41:25.820Z,3.53
2017-09-09T10:44:08.892Z,3.47
2017-09-09T10:45:19.763Z,4.12
2017-09-09T10:46:32.482Z,3.45
2017-09-09T10:47:41.423Z,3.53
2017-09-09T10:48:51.467Z,3.03
2017-09-09T10:50:03.815Z,3.78
2017-09-09T10:51:15.747Z,2.90
2017-09-09T10:52:26.766Z,3.75
2017-09-09T10:53:40.019Z,3.12
2017-09-09T10:55:05.516Z,3.55
2017-09-09T10:56:52.850Z,3.22
2017-09-09T10:58:32.206Z,3.37
2017-09-09T10:59:44.704Z,3.80
2017-09-09T11:00:58.918Z,3.28
2017-09-09T11:02:26.891Z,3.53
2017-09-09T11:03:41.940Z,3.20
2017-09-09T11:04:52.555Z,3.67
2017-09-09T11:08:34.369Z,3.40
2017-09-09T11:12:13.627Z,3.00
2017-09-09T11:16:53.412Z,3.12
2017-09-09T11:18:43.312Z,2.60
2017-09-09T11:19:50.417Z,2.40
2017-09-09T11:20:58.348Z,2.95
2017-09-09T11:22:06.342Z,2.58
2017-09-09T11:35:32.281Z,2.40
2017-09-09T11:36:38.691Z,2.55
2017-09-09T11:37:46.340Z,2.72
2017-09-09T11:38:54.792Z,2.72
2017-09-09T11:40:02.622Z,2.72
2017-09-09T11:41:10.357Z,2.70
2017-09-09T11:42:18.325Z,2.60
2017-09-09T11:43:26.825Z,2.58
2017-09-09T11:44:35.622Z,2.83
2017-09-09T11:45:46.555Z,2.92
2017-09-09T11:46:57.329Z,2.90
2017-09-09T11:48:06.301Z,2.72
2017-09-09T11:49:16.406Z,2.65
2017-09-09T11:50:25.569Z,2.53
2017-09-09T11:51:36.337Z,3.12
2017-09-09T11:52:45.508Z,3.00
2017-09-09T11:56:05.460Z,2.80
2017-09-09T11:57:16.172Z,2.83
2017-09-09T12:00:10.552Z,3.00
2017-09-09T12:01:52.438Z,2.87
2017-09-09T12:04:14.790Z,2.50
2017-09-09T12:05:25.500Z,2.87
2017-09-09T12:06:36.512Z,2.67
2017-09-09T12:07:46.435Z,2.62
2017-09-09T12:08:57.349Z,3.20
2017-09-09T12:10:07.492Z,2.70
2017-09-09T12:11:16.690Z,2.62
2017-09-09T12:12:26.454Z,2.90
2017-09-09T12:13:35.352Z,3.08
2017-09-09T12:14:44.489Z,2.90
2017-09-09T12:15:54.417Z,2.55
2017-09-09T12:17:03.791Z,2.90
2017-09-09T12:18:14.443Z,2.42
2017-09-09T12:19:24.351Z,3.53
2017-09-09T12:20:34.367Z,2.90
2017-09-09T12:21:43.340Z,2.65
2017-09-09T12:22:52.417Z,3.20
2017-09-09T12:24:03.355Z,3.50
2017-09-09T12:25:13.996Z,2.25
2017-09-09T12:26:24.401Z,2.95
2017-09-09T12:27:36.452Z,2.60
2017-09-09T12:28:47.299Z,2.85
2017-09-09T12:29:58.287Z,2.95
2017-09-09T12:31:07.384Z,2.80
2017-09-09T12:32:18.287Z,2.75
2017-09-09T12:33:31.534Z,2.95
2017-09-09T12:34:42.518Z,2.97
2017-09-09T12:35:52.405Z,2.62
2017-09-09T12:37:02.395Z,3.00
2017-09-09T12:38:12.672Z,2.80
2017-09-09T12:39:21.695Z,2.20
2017-09-09T12:40:32.617Z,2.87
2017-09-09T12:41:41.384Z,3.17
2017-09-09T12:42:50.990Z,2.67
2017-09-09T12:44:01.349Z,2.80
2017-09-09T12:45:12.464Z,2.75
2017-09-09T12:46:24.274Z,2.70
2017-09-09T12:47:34.360Z,2.80
2017-09-09T12:48:44.262Z,3.03
2017-09-09T12:49:55.387Z,2.65
2017-09-09T12:51:05.499Z,2.45
2017-09-09T12:52:15.402Z,2.15
2017-09-09T12:53:25.497Z,2.53
2017-09-09T12:54:34.354Z,2.80
2017-09-09T12:55:44.266Z,3.03
2017-09-09T12:56:54.666Z,2.42
2017-09-09T12:58:03.412Z,2.70
2017-09-09T12:59:14.273Z,2.50
2017-09-09T13:00:24.595Z,3.35
2017-09-09T13:01:34.370Z,2.90
2017-09-09T13:02:45.265Z,2.45
2017-09-09T13:03:55.242Z,3.30
2017-09-09T13:05:04.272Z,2.40
2017-09-09T13:06:14.940Z,2.80
2017-09-09T13:07:24.206Z,2.70
2017-09-09T13:08:34.463Z,3.00
2017-09-09T13:09:43.282Z,2.40
2017-09-09T13:10:51.967Z,2.78
2017-09-09T13:12:00.277Z,2.90
2017-09-09T13:13:12.551Z,2.83
2017-09-09T13:14:23.319Z,2.20
2017-09-09T13:15:32.379Z,2.80
2017-09-09T13:16:40.242Z,2.40
2017-09-09T13:17:50.287Z,2.08
2017-09-09T13:19:00.184Z,2.58
2017-09-09T13:20:10.197Z,2.42
2017-09-09T13:21:19.316Z,2.15
2017-09-09T13:22:30.118Z,2.40
2017-09-09T13:23:40.140Z,2.20
2017-09-09T13:24:51.333Z,2.45
2017-09-09T13:26:02.277Z,3.05
2017-09-09T13:27:11.363Z,2.15
2017-09-09T13:28:21.379Z,2.78
2017-09-09T13:29:31.380Z,2.72
2017-09-09T13:30:42.001Z,2.50
2017-09-09T13:31:51.050Z,2.50
2017-09-09T13:33:00.263Z,2.40
2017-09-09T13:34:09.389Z,2.08
2017-09-09T13:35:18.583Z,2.45
2017-09-09T13:36:28.140Z,2.65
2017-09-09T13:37:38.181Z,1.75
2017-09-09T13:38:48.337Z,2.62
2017-09-09T13:39:59.315Z,2.47
2017-09-09T13:41:09.165Z,2.30
2017-09-09T13:42:20.143Z,2.30
2017-09-09T13:43:31.463Z,2.42
2017-09-09T13:44:43.466Z,2.47
2017-09-09T13:45:53.244Z,2.47
2017-09-09T13:47:03.278Z,2.50
2017-09-09T13:48:15.282Z,2.30
2017-09-09T13:49:25.318Z,2.25
2017-09-09T13:50:34.456Z,2.30
2017-09-09T13:51:42.275Z,2.87
2017-09-09T13:52:52.171Z,2.25
2017-09-09T13:54:01.274Z,2.20
2017-09-09T13:55:13.206Z,2.55
2017-09-09T13:56:25.248Z,1.90
2017-09-09T13:57:36.296Z,2.08
2017-09-09T13:58:49.198Z,2.15
2017-09-09T13:59:59.200Z,2.35
2017-09-09T14:01:09.215Z,2.20
2017-09-09T14:02:20.115Z,2.15
2017-09-09T14:03:29.928Z,2.10
2017-09-09T14:04:40.299Z,2.30
2017-09-09T14:05:50.067Z,1.80
2017-09-09T14:07:00.312Z,2.30
2017-09-09T14:08:10.181Z,1.80
2017-09-09T14:09:19.335Z,2.35
2017-09-09T14:10:28.222Z,2.10
2017-09-09T14:11:37.239Z,2.15
2017-09-09T14:12:46.235Z,2.15
2017-09-09T14:13:57.218Z,2.40
2017-09-09T14:15:07.185Z,2.30
2017-09-09T14:16:17.123Z,2.40
2017-09-09T14:17:26.273Z,2.40
2017-09-09T14:18:36.055Z,2.08
2017-09-09T14:19:47.362Z,2.40
2017-09-09T14:20:57.301Z,2.22
2017-09-09T14:22:06.145Z,2.25
2017-09-09T14:23:14.417Z,2.00
2017-09-09T14:24:22.155Z,2.62
2017-09-09T14:25:32.174Z,2.10
2017-09-09T14:26:41.123Z,1.60
2017-09-09T14:27:50.091Z,2.12
2017-09-09T14:29:00.118Z,1.90
2017-09-09T14:30:10.138Z,2.25
2017-09-09T14:31:19.187Z,2.00
2017-09-09T14:32:28.146Z,1.80
2017-09-09T14:33:37.014Z,1.80
2017-09-09T14:34:47.240Z,1.80
2017-09-09T14:35:57.064Z,2.00
2017-09-09T14:37:07.067Z,1.80
2017-09-09T14:38:17.023Z,2.10
2017-09-09T14:39:26.096Z,1.60
2017-09-09T14:40:36.048Z,1.70
2017-09-09T14:41:46.091Z,1.70
2017-09-09T14:42:56.070Z,1.40
2017-09-09T14:44:06.010Z,1.80
2017-09-09T14:45:16.352Z,1.67
2017-09-09T14:46:25.031Z,1.77
2017-09-09T14:47:34.046Z,1.80
2017-09-09T14:48:43.394Z,2.28
2017-09-09T14:49:52.058Z,1.70
2017-09-09T14:51:01.056Z,1.70
2017-09-09T14:52:09.380Z,1.62
2017-09-09T14:53:18.130Z,1.52
2017-09-09T14:54:28.000Z,1.65
2017-09-09T14:55:38.059Z,1.80
2017-09-09T14:56:48.068Z,1.87
2017-09-09T14:57:57.127Z,1.30
2017-09-09T14:59:07.036Z,1.67
2017-09-09T15:00:17.042Z,1.50
2017-09-09T15:01:27.004Z,1.40
2017-09-09T15:02:36.969Z,1.58
2017-09-09T15:03:46.040Z,1.90
2017-09-09T15:04:55.189Z,1.55
2017-09-09T15:06:04.058Z,1.60
2017-09-09T15:07:13.078Z,1.70
2017-09-09T15:08:22.968Z,1.40
2017-09-09T15:09:33.015Z,1.75
2017-09-09T15:10:43.022Z,1.45
2017-09-09T15:11:52.011Z,1.85
2017-09-09T15:13:02.218Z,1.62
2017-09-09T15:14:13.025Z,1.85
2017-09-09T15:15:22.962Z,1.85
2017-09-09T15:16:32.069Z,1.60
2017-09-09T15:17:41.147Z,1.60
2017-09-09T15:18:51.114Z,2.22
2017-09-09T15:20:00.989Z,1.80
2017-09-09T15:21:11.324Z,1.60
2017-09-09T15:22:22.997Z,1.70
2017-09-09T15:23:33.089Z,1.48
2017-09-09T15:24:42.997Z,1.60
2017-09-09T15:25:54.097Z,1.87
2017-09-09T15:27:05.075Z,2.03
2017-09-09T15:28:17.105Z,1.50
2017-09-09T15:29:28.038Z,1.85
2017-09-09T15:30:38.064Z,1.65
2017-09-09T15:31:48.077Z,1.75
2017-09-09T15:32:58.063Z,2.17
2017-09-09T15:34:07.049Z,1.70
2017-09-09T15:35:15.915Z,2.35
2017-09-09T15:36:26.028Z,1.60
2017-09-09T15:37:35.014Z,1.60
2017-09-09T15:38:44.605Z,1.85
2017-09-09T15:39:53.955Z,1.50
2017-09-09T15:41:04.015Z,1.87
2017-09-09T15:42:13.966Z,2.33
2017-09-09T15:43:25.032Z,2.10
2017-09-09T15:44:35.177Z,1.98
2017-09-09T15:45:45.058Z,2.05
2017-09-09T15:46:54.932Z,1.95
2017-09-09T15:48:04.947Z,3.25
2017-09-09T15:49:14.934Z,1.83
2017-09-09T15:50:23.901Z,1.55
2017-09-09T15:51:34.276Z,1.80
2017-09-09T15:52:42.960Z,1.60
2017-09-09T15:53:53.018Z,2.05
2017-09-09T15:55:02.910Z,1.90
2017-09-09T15:56:13.981Z,1.90
2017-09-09T15:57:24.038Z,1.80
2017-09-09T15:58:32.939Z,2.03
2017-09-09T15:59:41.760Z,1.95
2017-09-09T16:00:51.984Z,1.98
2017-09-09T16:02:02.240Z,2.10
2017-09-09T16:03:12.856Z,2.08
2017-09-09T16:04:22.817Z,1.90
2017-09-09T16:05:32.894Z,1.73
2017-09-09T16:06:41.275Z,2.00
2017-09-09T16:07:51.123Z,2.25
2017-09-09T16:09:01.245Z,2.45
2017-09-09T16:10:09.888Z,2.50
2017-09-09T16:11:19.871Z,3.00
2017-09-09T16:12:30.962Z,2.90
2017-09-09T16:13:39.901Z,2.75
2017-09-09T16:14:49.867Z,2.35
2017-09-09T16:16:00.882Z,2.40
2017-09-09T16:17:11.006Z,2.78
2017-09-09T16:18:20.949Z,2.10
2017-09-09T16:19:30.591Z,2.03
2017-09-09T16:20:39.943Z,2.30
2017-09-09T16:21:49.979Z,1.90
2017-09-09T16:22:59.793Z,1.87
2017-09-09T16:24:10.780Z,1.95
2017-09-09T16:25:21.825Z,2.08